sensor_id;sensor_type;location;lat;lon;timestamp;P1;durP1;ratioP1;P2;durP2;ratioP2
71127;SDS011;59249;59.736;30.568;2022-09-24T00:00:05;22.05;;;8.00;;
71127;SDS011;59249;59.736;30.568;2022-09-24T00:02:35;27.17;;;8.48;;
71127;SDS011;59249;59.736;30.568;2022-09-24T00:05:05;15.15;;;6.25;;
71127;SDS011;59249;59.736;30.568;2022-09-24T00:07:34;16.90;;;8.17;;
71127;SDS011;59249;59.736;30.568;2022-09-24T00:10:05;21.95;;;7.97;;
71127;SDS011;59249;59.736;30.568;2022-09-24T00:12:35;21.92;;;8.38;;
71127;SDS011;59249;59.736;30.568;2022-09-24T00:15:05;21.15;;;8.02;;
71127;SDS011;59249;59.736;30.568;2022-09-24T00:17:35;20.10;;;7.70;;
71127;SDS011;59249;59.736;30.568;2022-09-24T00:20:04;19.57;;;8.10;;
71127;SDS011;59249;59.736;30.568;2022-09-24T00:22:34;19.33;;;7.50;;
71127;SDS011;59249;59.736;30.568;2022-09-24T00:25:04;19.30;;;7.57;;
71127;SDS011;59249;59.736;30.568;2022-09-24T00:27:52;16.02;;;6.95;;
71127;SDS011;59249;59.736;30.568;2022-09-24T00:30:20;30.73;;;8.52;;
71127;SDS011;59249;59.736;30.568;2022-09-24T00:32:49;27.20;;;8.70;;
71127;SDS011;59249;59.736;30.568;2022-09-24T00:35:18;23.13;;;7.25;;
71127;SDS011;59249;59.736;30.568;2022-09-24T00:37:46;15.43;;;5.57;;
71127;SDS011;59249;59.736;30.568;2022-09-24T00:40:17;47.67;;;10.52;;
71127;SDS011;59249;59.736;30.568;2022-09-24T00:42:46;41.67;;;10.95;;
71127;SDS011;59249;59.736;30.568;2022-09-24T00:45:15;46.90;;;11.10;;
71127;SDS011;59249;59.736;30.568;2022-09-24T00:47:44;24.67;;;8.90;;
71127;SDS011;59249;59.736;30.568;2022-09-24T00:50:16;25.15;;;9.55;;
71127;SDS011;59249;59.736;30.568;2022-09-24T00:52:52;23.55;;;9.27;;
71127;SDS011;59249;59.736;30.568;2022-09-24T00:55:27;27.23;;;9.85;;
71127;SDS011;59249;59.736;30.568;2022-09-24T00:57:58;29.10;;;9.17;;
71127;SDS011;59249;59.736;30.568;2022-09-24T01:00:30;30.50;;;8.60;;
71127;SDS011;59249;59.736;30.568;2022-09-24T01:03:01;25.88;;;8.00;;
71127;SDS011;59249;59.736;30.568;2022-09-24T01:05:36;22.77;;;7.45;;
71127;SDS011;59249;59.736;30.568;2022-09-24T01:08:06;27.25;;;7.88;;
71127;SDS011;59249;59.736;30.568;2022-09-24T01:10:43;21.63;;;7.87;;
71127;SDS011;59249;59.736;30.568;2022-09-24T01:16:35;18.55;;;7.38;;
71127;SDS011;59249;59.736;30.568;2022-09-24T01:19:20;21.38;;;7.10;;
71127;SDS011;59249;59.736;30.568;2022-09-24T01:22:12;21.45;;;6.75;;
71127;SDS011;59249;59.736;30.568;2022-09-24T01:24:59;18.30;;;5.90;;
71127;SDS011;59249;59.736;30.568;2022-09-24T01:27:41;17.20;;;5.90;;
71127;SDS011;59249;59.736;30.568;2022-09-24T01:30:30;16.23;;;5.80;;
71127;SDS011;59249;59.736;30.568;2022-09-24T01:33:05;14.75;;;4.35;;
71127;SDS011;59249;59.736;30.568;2022-09-24T01:35:38;11.07;;;3.58;;
71127;SDS011;59249;59.736;30.568;2022-09-24T01:38:12;16.67;;;4.97;;
71127;SDS011;59249;59.736;30.568;2022-09-24T01:40:46;11.57;;;4.55;;
71127;SDS011;59249;59.736;30.568;2022-09-24T01:43:19;12.20;;;3.80;;
71127;SDS011;59249;59.736;30.568;2022-09-24T01:45:55;14.35;;;4.25;;
71127;SDS011;59249;59.736;30.568;2022-09-24T01:48:27;12.18;;;3.70;;
71127;SDS011;59249;59.736;30.568;2022-09-24T01:50:59;15.80;;;5.10;;
71127;SDS011;59249;59.736;30.568;2022-09-24T01:53:36;15.13;;;5.50;;
71127;SDS011;59249;59.736;30.568;2022-09-24T01:56:12;15.70;;;5.20;;
71127;SDS011;59249;59.736;30.568;2022-09-24T01:58:50;11.13;;;5.20;;
71127;SDS011;59249;59.736;30.568;2022-09-24T02:01:29;12.30;;;5.07;;
71127;SDS011;59249;59.736;30.568;2022-09-24T02:04:10;12.20;;;4.33;;
71127;SDS011;59249;59.736;30.568;2022-09-24T02:06:45;18.30;;;5.57;;
71127;SDS011;59249;59.736;30.568;2022-09-24T02:09:31;14.05;;;4.10;;
71127;SDS011;59249;59.736;30.568;2022-09-24T02:12:04;9.40;;;3.50;;
71127;SDS011;59249;59.736;30.568;2022-09-24T02:14:39;12.43;;;3.45;;
71127;SDS011;59249;59.736;30.568;2022-09-24T02:17:14;9.00;;;3.07;;
71127;SDS011;59249;59.736;30.568;2022-09-24T02:19:43;7.00;;;2.83;;
71127;SDS011;59249;59.736;30.568;2022-09-24T02:22:14;8.18;;;2.30;;
71127;SDS011;59249;59.736;30.568;2022-09-24T02:24:45;8.23;;;2.30;;
71127;SDS011;59249;59.736;30.568;2022-09-24T02:27:17;8.00;;;2.40;;
71127;SDS011;59249;59.736;30.568;2022-09-24T02:29:47;8.77;;;2.40;;
71127;SDS011;59249;59.736;30.568;2022-09-24T02:32:17;8.98;;;3.10;;
71127;SDS011;59249;59.736;30.568;2022-09-24T02:34:50;8.82;;;2.35;;
71127;SDS011;59249;59.736;30.568;2022-09-24T02:37:23;7.93;;;2.10;;
71127;SDS011;59249;59.736;30.568;2022-09-24T02:39:52;6.32;;;2.22;;
71127;SDS011;59249;59.736;30.568;2022-09-24T02:42:21;8.33;;;2.07;;
71127;SDS011;59249;59.736;30.568;2022-09-24T02:44:50;7.88;;;2.83;;
71127;SDS011;59249;59.736;30.568;2022-09-24T02:47:24;7.53;;;2.38;;
71127;SDS011;59249;59.736;30.568;2022-09-24T02:49:54;8.23;;;2.15;;
71127;SDS011;59249;59.736;30.568;2022-09-24T02:52:23;8.15;;;2.10;;
71127;SDS011;59249;59.736;30.568;2022-09-24T02:54:52;8.37;;;1.63;;
71127;SDS011;59249;59.736;30.568;2022-09-24T02:57:21;8.25;;;2.70;;
71127;SDS011;59249;59.736;30.568;2022-09-24T02:59:50;7.20;;;1.98;;
71127;SDS011;59249;59.736;30.568;2022-09-24T03:02:18;6.00;;;1.95;;
71127;SDS011;59249;59.736;30.568;2022-09-24T03:04:49;7.07;;;2.75;;
71127;SDS011;59249;59.736;30.568;2022-09-24T03:07:18;7.47;;;2.43;;
71127;SDS011;59249;59.736;30.568;2022-09-24T03:09:48;7.60;;;2.97;;
71127;SDS011;59249;59.736;30.568;2022-09-24T03:12:17;11.23;;;3.03;;
71127;SDS011;59249;59.736;30.568;2022-09-24T03:14:46;7.55;;;1.83;;
71127;SDS011;59249;59.736;30.568;2022-09-24T03:17:14;7.43;;;2.50;;
71127;SDS011;59249;59.736;30.568;2022-09-24T03:19:43;9.47;;;2.70;;
71127;SDS011;59249;59.736;30.568;2022-09-24T03:22:14;7.13;;;2.45;;
71127;SDS011;59249;59.736;30.568;2022-09-24T03:24:42;7.20;;;2.00;;
71127;SDS011;59249;59.736;30.568;2022-09-24T03:27:12;5.22;;;1.88;;
71127;SDS011;59249;59.736;30.568;2022-09-24T03:29:40;6.05;;;1.75;;
71127;SDS011;59249;59.736;30.568;2022-09-24T03:32:29;7.73;;;1.77;;
71127;SDS011;59249;59.736;30.568;2022-09-24T03:34:59;6.07;;;1.73;;
71127;SDS011;59249;59.736;30.568;2022-09-24T03:37:30;9.00;;;2.33;;
71127;SDS011;59249;59.736;30.568;2022-09-24T03:40:00;4.85;;;1.95;;
71127;SDS011;59249;59.736;30.568;2022-09-24T03:42:29;8.23;;;2.60;;
71127;SDS011;59249;59.736;30.568;2022-09-24T03:44:59;6.60;;;2.17;;
71127;SDS011;59249;59.736;30.568;2022-09-24T03:47:29;4.97;;;2.00;;
71127;SDS011;59249;59.736;30.568;2022-09-24T03:49:59;5.13;;;1.65;;
71127;SDS011;59249;59.736;30.568;2022-09-24T03:52:30;5.15;;;1.75;;
71127;SDS011;59249;59.736;30.568;2022-09-24T03:54:59;4.90;;;1.58;;
71127;SDS011;59249;59.736;30.568;2022-09-24T03:57:29;6.80;;;1.97;;
71127;SDS011;59249;59.736;30.568;2022-09-24T03:59:57;6.97;;;2.25;;
71127;SDS011;59249;59.736;30.568;2022-09-24T04:02:26;7.07;;;1.85;;
71127;SDS011;59249;59.736;30.568;2022-09-24T04:04:55;7.53;;;2.33;;
71127;SDS011;59249;59.736;30.568;2022-09-24T04:07:24;6.65;;;1.80;;
71127;SDS011;59249;59.736;30.568;2022-09-24T04:09:54;9.57;;;2.57;;
71127;SDS011;59249;59.736;30.568;2022-09-24T04:12:22;10.52;;;3.33;;
71127;SDS011;59249;59.736;30.568;2022-09-24T04:14:51;11.65;;;3.42;;
71127;SDS011;59249;59.736;30.568;2022-09-24T04:17:20;21.35;;;7.45;;
71127;SDS011;59249;59.736;30.568;2022-09-24T04:19:48;27.30;;;7.45;;
71127;SDS011;59249;59.736;30.568;2022-09-24T04:22:19;21.93;;;6.43;;
71127;SDS011;59249;59.736;30.568;2022-09-24T04:24:47;27.50;;;8.60;;
71127;SDS011;59249;59.736;30.568;2022-09-24T04:27:18;23.02;;;7.18;;
71127;SDS011;59249;59.736;30.568;2022-09-24T04:29:47;23.42;;;7.97;;
71127;SDS011;59249;59.736;30.568;2022-09-24T04:32:16;30.65;;;9.00;;
71127;SDS011;59249;59.736;30.568;2022-09-24T04:34:45;28.27;;;9.20;;
71127;SDS011;59249;59.736;30.568;2022-09-24T04:37:13;23.13;;;8.18;;
71127;SDS011;59249;59.736;30.568;2022-09-24T04:39:42;23.05;;;7.93;;
71127;SDS011;59249;59.736;30.568;2022-09-24T04:42:14;26.80;;;8.05;;
71127;SDS011;59249;59.736;30.568;2022-09-24T04:44:47;20.75;;;6.13;;
71127;SDS011;59249;59.736;30.568;2022-09-24T04:47:21;14.27;;;4.30;;
71127;SDS011;59249;59.736;30.568;2022-09-24T04:49:51;14.85;;;5.32;;
71127;SDS011;59249;59.736;30.568;2022-09-24T04:52:20;18.23;;;5.07;;
71127;SDS011;59249;59.736;30.568;2022-09-24T04:54:51;22.42;;;8.07;;
71127;SDS011;59249;59.736;30.568;2022-09-24T04:57:20;18.00;;;5.25;;
71127;SDS011;59249;59.736;30.568;2022-09-24T04:59:50;24.63;;;9.97;;
71127;SDS011;59249;59.736;30.568;2022-09-24T05:02:19;24.92;;;8.68;;
71127;SDS011;59249;59.736;30.568;2022-09-24T05:04:49;25.25;;;9.98;;
71127;SDS011;59249;59.736;30.568;2022-09-24T05:07:18;43.20;;;15.80;;
71127;SDS011;59249;59.736;30.568;2022-09-24T05:09:47;47.63;;;17.83;;
71127;SDS011;59249;59.736;30.568;2022-09-24T05:12:16;68.27;;;24.27;;
71127;SDS011;59249;59.736;30.568;2022-09-24T05:14:47;52.45;;;19.85;;
71127;SDS011;59249;59.736;30.568;2022-09-24T05:17:17;40.67;;;14.27;;
71127;SDS011;59249;59.736;30.568;2022-09-24T05:19:46;41.05;;;14.57;;
71127;SDS011;59249;59.736;30.568;2022-09-24T05:22:15;18.52;;;6.20;;
71127;SDS011;59249;59.736;30.568;2022-09-24T05:24:44;13.20;;;6.17;;
71127;SDS011;59249;59.736;30.568;2022-09-24T05:27:13;15.38;;;7.30;;
71127;SDS011;59249;59.736;30.568;2022-09-24T05:29:53;13.57;;;6.75;;
71127;SDS011;59249;59.736;30.568;2022-09-24T05:32:24;15.95;;;8.13;;
71127;SDS011;59249;59.736;30.568;2022-09-24T05:34:58;11.55;;;4.93;;
71127;SDS011;59249;59.736;30.568;2022-09-24T05:37:28;15.90;;;7.63;;
71127;SDS011;59249;59.736;30.568;2022-09-24T05:39:57;14.63;;;6.30;;
71127;SDS011;59249;59.736;30.568;2022-09-24T05:42:50;13.00;;;5.25;;
71127;SDS011;59249;59.736;30.568;2022-09-24T05:45:25;21.15;;;12.32;;
71127;SDS011;59249;59.736;30.568;2022-09-24T05:47:56;20.55;;;10.85;;
71127;SDS011;59249;59.736;30.568;2022-09-24T05:50:26;14.53;;;6.07;;
71127;SDS011;59249;59.736;30.568;2022-09-24T05:52:55;12.52;;;6.95;;
71127;SDS011;59249;59.736;30.568;2022-09-24T05:55:24;11.48;;;4.95;;
71127;SDS011;59249;59.736;30.568;2022-09-24T05:58:01;8.40;;;4.22;;
71127;SDS011;59249;59.736;30.568;2022-09-24T06:00:32;11.50;;;3.78;;
71127;SDS011;59249;59.736;30.568;2022-09-24T06:03:05;11.80;;;3.80;;
71127;SDS011;59249;59.736;30.568;2022-09-24T06:05:53;8.02;;;3.55;;
71127;SDS011;59249;59.736;30.568;2022-09-24T06:08:28;9.10;;;3.72;;
71127;SDS011;59249;59.736;30.568;2022-09-24T06:10:59;6.45;;;2.03;;
71127;SDS011;59249;59.736;30.568;2022-09-24T06:13:39;6.00;;;1.90;;
71127;SDS011;59249;59.736;30.568;2022-09-24T06:16:08;6.87;;;2.37;;
71127;SDS011;59249;59.736;30.568;2022-09-24T06:18:46;8.02;;;1.83;;
71127;SDS011;59249;59.736;30.568;2022-09-24T06:21:15;5.53;;;1.73;;
71127;SDS011;59249;59.736;30.568;2022-09-24T06:23:44;2.50;;;0.75;;
71127;SDS011;59249;59.736;30.568;2022-09-24T06:26:14;3.38;;;1.10;;
71127;SDS011;59249;59.736;30.568;2022-09-24T06:28:44;9.50;;;2.30;;
71127;SDS011;59249;59.736;30.568;2022-09-24T06:31:13;10.30;;;2.22;;
71127;SDS011;59249;59.736;30.568;2022-09-24T06:33:43;3.47;;;1.08;;
71127;SDS011;59249;59.736;30.568;2022-09-24T06:36:13;3.45;;;0.70;;
71127;SDS011;59249;59.736;30.568;2022-09-24T06:38:41;4.47;;;0.98;;
71127;SDS011;59249;59.736;30.568;2022-09-24T06:41:11;9.40;;;2.17;;
71127;SDS011;59249;59.736;30.568;2022-09-24T06:43:40;2.67;;;0.77;;
71127;SDS011;59249;59.736;30.568;2022-09-24T06:46:08;1.63;;;0.65;;
71127;SDS011;59249;59.736;30.568;2022-09-24T06:48:37;6.53;;;1.65;;
71127;SDS011;59249;59.736;30.568;2022-09-24T06:51:06;4.43;;;0.80;;
71127;SDS011;59249;59.736;30.568;2022-09-24T06:53:41;5.63;;;1.00;;
71127;SDS011;59249;59.736;30.568;2022-09-24T06:56:10;4.60;;;1.52;;
71127;SDS011;59249;59.736;30.568;2022-09-24T06:58:38;3.97;;;1.40;;
71127;SDS011;59249;59.736;30.568;2022-09-24T07:01:07;7.68;;;1.45;;
71127;SDS011;59249;59.736;30.568;2022-09-24T07:03:36;4.93;;;1.58;;
71127;SDS011;59249;59.736;30.568;2022-09-24T07:06:06;1.93;;;0.63;;
71127;SDS011;59249;59.736;30.568;2022-09-24T07:08:34;5.78;;;0.63;;
71127;SDS011;59249;59.736;30.568;2022-09-24T07:11:05;3.20;;;0.75;;
71127;SDS011;59249;59.736;30.568;2022-09-24T07:13:34;3.42;;;0.80;;
71127;SDS011;59249;59.736;30.568;2022-09-24T07:16:03;4.32;;;1.65;;
71127;SDS011;59249;59.736;30.568;2022-09-24T07:18:32;3.23;;;0.60;;
71127;SDS011;59249;59.736;30.568;2022-09-24T07:21:03;4.68;;;1.35;;
71127;SDS011;59249;59.736;30.568;2022-09-24T07:23:31;5.85;;;1.50;;
71127;SDS011;59249;59.736;30.568;2022-09-24T07:26:01;5.43;;;1.40;;
71127;SDS011;59249;59.736;30.568;2022-09-24T07:28:36;3.55;;;1.05;;
71127;SDS011;59249;59.736;30.568;2022-09-24T07:31:06;3.13;;;0.77;;
71127;SDS011;59249;59.736;30.568;2022-09-24T07:33:36;4.45;;;1.13;;
71127;SDS011;59249;59.736;30.568;2022-09-24T07:36:05;2.17;;;0.57;;
71127;SDS011;59249;59.736;30.568;2022-09-24T07:38:34;2.65;;;1.05;;
71127;SDS011;59249;59.736;30.568;2022-09-24T07:41:03;1.83;;;0.45;;
71127;SDS011;59249;59.736;30.568;2022-09-24T07:43:35;4.00;;;1.37;;
71127;SDS011;59249;59.736;30.568;2022-09-24T07:46:04;3.92;;;1.48;;
71127;SDS011;59249;59.736;30.568;2022-09-24T07:48:33;5.47;;;1.40;;
71127;SDS011;59249;59.736;30.568;2022-09-24T07:51:02;4.78;;;1.02;;
71127;SDS011;59249;59.736;30.568;2022-09-24T07:53:32;3.03;;;1.25;;
71127;SDS011;59249;59.736;30.568;2022-09-24T07:56:00;7.63;;;2.37;;
71127;SDS011;59249;59.736;30.568;2022-09-24T07:58:29;5.95;;;1.80;;
71127;SDS011;59249;59.736;30.568;2022-09-24T08:01:00;4.13;;;1.88;;
71127;SDS011;59249;59.736;30.568;2022-09-24T08:03:29;4.47;;;0.68;;
71127;SDS011;59249;59.736;30.568;2022-09-24T08:05:59;2.45;;;0.82;;
71127;SDS011;59249;59.736;30.568;2022-09-24T08:08:28;1.90;;;0.80;;
71127;SDS011;59249;59.736;30.568;2022-09-24T08:10:56;4.47;;;1.75;;
71127;SDS011;59249;59.736;30.568;2022-09-24T08:13:30;4.32;;;1.02;;
71127;SDS011;59249;59.736;30.568;2022-09-24T08:16:04;3.35;;;1.00;;
71127;SDS011;59249;59.736;30.568;2022-09-24T08:18:34;5.70;;;2.00;;
71127;SDS011;59249;59.736;30.568;2022-09-24T08:21:07;6.43;;;2.10;;
71127;SDS011;59249;59.736;30.568;2022-09-24T08:23:39;2.60;;;0.75;;
71127;SDS011;59249;59.736;30.568;2022-09-24T08:26:10;2.65;;;0.68;;
71127;SDS011;59249;59.736;30.568;2022-09-24T08:28:42;1.20;;;0.20;;
71127;SDS011;59249;59.736;30.568;2022-09-24T08:31:12;2.03;;;0.50;;
71127;SDS011;59249;59.736;30.568;2022-09-24T08:33:43;4.20;;;0.60;;
71127;SDS011;59249;59.736;30.568;2022-09-24T08:36:16;2.55;;;0.45;;
71127;SDS011;59249;59.736;30.568;2022-09-24T08:38:45;3.75;;;0.70;;
71127;SDS011;59249;59.736;30.568;2022-09-24T08:41:17;1.70;;;0.40;;
71127;SDS011;59249;59.736;30.568;2022-09-24T08:44:14;2.40;;;0.50;;
71127;SDS011;59249;59.736;30.568;2022-09-24T08:47:13;1.83;;;0.57;;
71127;SDS011;59249;59.736;30.568;2022-09-24T08:49:58;2.05;;;0.70;;
71127;SDS011;59249;59.736;30.568;2022-09-24T08:52:39;1.95;;;0.60;;
71127;SDS011;59249;59.736;30.568;2022-09-24T08:55:34;2.63;;;0.40;;
71127;SDS011;59249;59.736;30.568;2022-09-24T08:58:12;3.08;;;0.20;;
71127;SDS011;59249;59.736;30.568;2022-09-24T09:01:01;2.87;;;0.20;;
71127;SDS011;59249;59.736;30.568;2022-09-24T09:03:48;1.27;;;0.30;;
71127;SDS011;59249;59.736;30.568;2022-09-24T09:09:23;1.55;;;0.30;;
71127;SDS011;59249;59.736;30.568;2022-09-24T09:12:02;12.57;;;3.55;;
71127;SDS011;59249;59.736;30.568;2022-09-24T09:14:44;10.67;;;2.17;;
71127;SDS011;59249;59.736;30.568;2022-09-24T09:17:26;5.72;;;1.30;;
71127;SDS011;59249;59.736;30.568;2022-09-24T09:20:11;3.22;;;0.52;;
71127;SDS011;59249;59.736;30.568;2022-09-24T09:22:46;1.52;;;0.47;;
71127;SDS011;59249;59.736;30.568;2022-09-24T09:25:20;1.00;;;0.30;;
71127;SDS011;59249;59.736;30.568;2022-09-24T09:27:55;2.10;;;0.30;;
71127;SDS011;59249;59.736;30.568;2022-09-24T09:30:31;2.67;;;0.40;;
71127;SDS011;59249;59.736;30.568;2022-09-24T09:33:22;10.80;;;2.33;;
71127;SDS011;59249;59.736;30.568;2022-09-24T09:36:15;9.45;;;2.28;;
71127;SDS011;59249;59.736;30.568;2022-09-24T09:39:16;6.60;;;1.38;;
71127;SDS011;59249;59.736;30.568;2022-09-24T09:42:07;8.37;;;1.87;;
71127;SDS011;59249;59.736;30.568;2022-09-24T09:44:58;5.20;;;1.60;;
71127;SDS011;59249;59.736;30.568;2022-09-24T09:47:33;1.92;;;0.47;;
71127;SDS011;59249;59.736;30.568;2022-09-24T09:50:14;5.10;;;0.93;;
71127;SDS011;59249;59.736;30.568;2022-09-24T09:52:59;7.20;;;1.77;;
71127;SDS011;59249;59.736;30.568;2022-09-24T09:55:28;5.30;;;1.10;;
71127;SDS011;59249;59.736;30.568;2022-09-24T09:58:09;5.95;;;1.33;;
71127;SDS011;59249;59.736;30.568;2022-09-24T10:00:45;6.07;;;1.98;;
71127;SDS011;59249;59.736;30.568;2022-09-24T10:03:25;5.20;;;1.02;;
71127;SDS011;59249;59.736;30.568;2022-09-24T10:05:57;4.15;;;0.70;;
71127;SDS011;59249;59.736;30.568;2022-09-24T10:08:31;1.47;;;0.37;;
71127;SDS011;59249;59.736;30.568;2022-09-24T10:11:00;2.80;;;0.70;;
71127;SDS011;59249;59.736;30.568;2022-09-24T10:13:30;4.82;;;0.90;;
71127;SDS011;59249;59.736;30.568;2022-09-24T10:16:00;4.05;;;0.88;;
71127;SDS011;59249;59.736;30.568;2022-09-24T10:18:33;2.53;;;0.45;;
71127;SDS011;59249;59.736;30.568;2022-09-24T10:21:07;3.87;;;0.50;;
71127;SDS011;59249;59.736;30.568;2022-09-24T10:23:42;4.05;;;1.10;;
71127;SDS011;59249;59.736;30.568;2022-09-24T10:26:14;3.25;;;0.90;;
71127;SDS011;59249;59.736;30.568;2022-09-24T10:28:44;2.28;;;0.65;;
71127;SDS011;59249;59.736;30.568;2022-09-24T10:31:34;3.03;;;0.43;;
71127;SDS011;59249;59.736;30.568;2022-09-24T10:34:17;3.07;;;0.73;;
71127;SDS011;59249;59.736;30.568;2022-09-24T10:36:50;3.47;;;0.50;;
71127;SDS011;59249;59.736;30.568;2022-09-24T10:39:21;3.22;;;0.60;;
71127;SDS011;59249;59.736;30.568;2022-09-24T10:41:51;3.20;;;0.70;;
71127;SDS011;59249;59.736;30.568;2022-09-24T10:44:22;4.50;;;1.00;;
71127;SDS011;59249;59.736;30.568;2022-09-24T10:47:02;5.03;;;1.53;;
71127;SDS011;59249;59.736;30.568;2022-09-24T10:49:46;2.20;;;0.47;;
71127;SDS011;59249;59.736;30.568;2022-09-24T10:52:55;2.38;;;0.40;;
71127;SDS011;59249;59.736;30.568;2022-09-24T10:55:40;2.78;;;0.30;;
71127;SDS011;59249;59.736;30.568;2022-09-24T10:58:32;4.13;;;0.70;;
71127;SDS011;59249;59.736;30.568;2022-09-24T11:01:22;3.83;;;0.50;;
71127;SDS011;59249;59.736;30.568;2022-09-24T11:04:14;1.02;;;0.20;;
71127;SDS011;59249;59.736;30.568;2022-09-24T11:06:59;1.27;;;0.20;;
71127;SDS011;59249;59.736;30.568;2022-09-24T11:10:03;3.15;;;0.50;;
71127;SDS011;59249;59.736;30.568;2022-09-24T11:12:53;1.40;;;0.22;;
71127;SDS011;59249;59.736;30.568;2022-09-24T11:15:42;2.13;;;0.47;;
71127;SDS011;59249;59.736;30.568;2022-09-24T11:18:36;2.15;;;0.40;;
71127;SDS011;59249;59.736;30.568;2022-09-24T11:21:21;1.45;;;0.30;;
71127;SDS011;59249;59.736;30.568;2022-09-24T11:24:19;2.60;;;0.77;;
71127;SDS011;59249;59.736;30.568;2022-09-24T11:27:19;1.42;;;0.30;;
71127;SDS011;59249;59.736;30.568;2022-09-24T11:30:12;3.70;;;0.53;;
71127;SDS011;59249;59.736;30.568;2022-09-24T11:32:48;4.47;;;0.68;;
71127;SDS011;59249;59.736;30.568;2022-09-24T11:38:34;1.90;;;0.40;;
71127;SDS011;59249;59.736;30.568;2022-09-24T11:41:30;1.15;;;0.13;;
71127;SDS011;59249;59.736;30.568;2022-09-24T11:47:35;1.05;;;0.30;;
71127;SDS011;59249;59.736;30.568;2022-09-24T11:50:24;2.05;;;0.30;;
71127;SDS011;59249;59.736;30.568;2022-09-24T11:53:14;1.73;;;0.35;;
71127;SDS011;59249;59.736;30.568;2022-09-24T11:55:59;2.30;;;0.40;;
71127;SDS011;59249;59.736;30.568;2022-09-24T11:58:40;0.77;;;0.10;;
71127;SDS011;59249;59.736;30.568;2022-09-24T12:01:15;1.85;;;0.30;;
71127;SDS011;59249;59.736;30.568;2022-09-24T12:03:50;5.80;;;1.63;;
71127;SDS011;59249;59.736;30.568;2022-09-24T12:06:26;0.85;;;0.20;;
71127;SDS011;59249;59.736;30.568;2022-09-24T12:09:06;1.45;;;0.30;;
71127;SDS011;59249;59.736;30.568;2022-09-24T12:11:47;1.57;;;0.43;;
71127;SDS011;59249;59.736;30.568;2022-09-24T12:14:21;2.67;;;0.50;;
71127;SDS011;59249;59.736;30.568;2022-09-24T12:16:55;2.42;;;1.20;;
71127;SDS011;59249;59.736;30.568;2022-09-24T12:19:37;1.25;;;0.30;;
71127;SDS011;59249;59.736;30.568;2022-09-24T12:22:16;2.40;;;0.82;;
71127;SDS011;59249;59.736;30.568;2022-09-24T12:24:50;3.17;;;0.70;;
71127;SDS011;59249;59.736;30.568;2022-09-24T12:27:32;2.63;;;0.40;;
71127;SDS011;59249;59.736;30.568;2022-09-24T12:30:04;1.00;;;0.20;;
71127;SDS011;59249;59.736;30.568;2022-09-24T12:33:20;3.08;;;0.93;;
71127;SDS011;59249;59.736;30.568;2022-09-24T12:36:02;7.35;;;1.15;;
71127;SDS011;59249;59.736;30.568;2022-09-24T12:38:40;3.43;;;0.90;;
71127;SDS011;59249;59.736;30.568;2022-09-24T12:41:20;3.20;;;0.40;;
71127;SDS011;59249;59.736;30.568;2022-09-24T12:44:10;2.72;;;0.40;;
71127;SDS011;59249;59.736;30.568;2022-09-24T12:46:50;5.88;;;0.45;;
71127;SDS011;59249;59.736;30.568;2022-09-24T12:49:25;5.22;;;0.57;;
71127;SDS011;59249;59.736;30.568;2022-09-24T12:52:03;3.07;;;0.70;;
71127;SDS011;59249;59.736;30.568;2022-09-24T12:54:45;4.10;;;0.60;;
71127;SDS011;59249;59.736;30.568;2022-09-24T12:57:30;2.03;;;0.40;;
71127;SDS011;59249;59.736;30.568;2022-09-24T13:00:04;1.23;;;0.20;;
71127;SDS011;59249;59.736;30.568;2022-09-24T13:03:05;1.48;;;0.22;;
71127;SDS011;59249;59.736;30.568;2022-09-24T13:05:54;0.70;;;0.20;;
71127;SDS011;59249;59.736;30.568;2022-09-24T13:08:33;1.63;;;0.28;;
71127;SDS011;59249;59.736;30.568;2022-09-24T13:13:59;1.58;;;0.10;;
71127;SDS011;59249;59.736;30.568;2022-09-24T13:16:37;1.02;;;0.30;;
71127;SDS011;59249;59.736;30.568;2022-09-24T13:19:18;2.10;;;0.40;;
71127;SDS011;59249;59.736;30.568;2022-09-24T13:21:59;1.80;;;0.47;;
71127;SDS011;59249;59.736;30.568;2022-09-24T13:24:31;2.20;;;0.40;;
71127;SDS011;59249;59.736;30.568;2022-09-24T13:27:18;2.08;;;0.38;;
71127;SDS011;59249;59.736;30.568;2022-09-24T13:30:16;2.10;;;0.32;;
71127;SDS011;59249;59.736;30.568;2022-09-24T13:32:55;1.53;;;0.30;;
71127;SDS011;59249;59.736;30.568;2022-09-24T13:35:33;1.40;;;0.20;;
71127;SDS011;59249;59.736;30.568;2022-09-24T13:38:15;1.33;;;0.20;;
71127;SDS011;59249;59.736;30.568;2022-09-24T13:40:55;3.40;;;0.40;;
71127;SDS011;59249;59.736;30.568;2022-09-24T13:43:36;0.90;;;0.20;;
71127;SDS011;59249;59.736;30.568;2022-09-24T13:46:14;2.07;;;0.27;;
71127;SDS011;59249;59.736;30.568;2022-09-24T13:48:48;3.53;;;0.70;;
71127;SDS011;59249;59.736;30.568;2022-09-24T13:51:22;1.23;;;0.22;;
71127;SDS011;59249;59.736;30.568;2022-09-24T13:53:58;0.90;;;0.20;;
71127;SDS011;59249;59.736;30.568;2022-09-24T13:56:36;2.53;;;0.30;;
71127;SDS011;59249;59.736;30.568;2022-09-24T13:59:08;1.67;;;0.23;;
71127;SDS011;59249;59.736;30.568;2022-09-24T14:01:47;3.03;;;0.60;;
71127;SDS011;59249;59.736;30.568;2022-09-24T14:04:19;2.78;;;0.50;;
71127;SDS011;59249;59.736;30.568;2022-09-24T14:06:52;1.13;;;0.30;;
71127;SDS011;59249;59.736;30.568;2022-09-24T14:09:25;1.27;;;0.32;;
71127;SDS011;59249;59.736;30.568;2022-09-24T14:12:02;3.17;;;0.40;;
71127;SDS011;59249;59.736;30.568;2022-09-24T14:14:42;2.42;;;0.60;;
71127;SDS011;59249;59.736;30.568;2022-09-24T14:17:14;0.98;;;0.22;;
71127;SDS011;59249;59.736;30.568;2022-09-24T14:19:52;4.72;;;0.32;;
71127;SDS011;59249;59.736;30.568;2022-09-24T14:26:05;1.67;;;0.40;;
71127;SDS011;59249;59.736;30.568;2022-09-24T14:28:51;1.08;;;0.38;;
71127;SDS011;59249;59.736;30.568;2022-09-24T14:31:53;1.50;;;0.30;;
71127;SDS011;59249;59.736;30.568;2022-09-24T14:34:39;1.95;;;0.20;;
71127;SDS011;59249;59.736;30.568;2022-09-24T14:37:11;2.05;;;0.30;;
71127;SDS011;59249;59.736;30.568;2022-09-24T14:39:56;1.73;;;0.50;;
71127;SDS011;59249;59.736;30.568;2022-09-24T14:42:52;3.00;;;0.70;;
71127;SDS011;59249;59.736;30.568;2022-09-24T14:45:32;6.68;;;1.45;;
71127;SDS011;59249;59.736;30.568;2022-09-24T14:51:25;4.80;;;0.90;;
71127;SDS011;59249;59.736;30.568;2022-09-24T14:54:18;3.33;;;0.83;;
71127;SDS011;59249;59.736;30.568;2022-09-24T14:56:54;2.53;;;0.60;;
71127;SDS011;59249;59.736;30.568;2022-09-24T14:59:26;1.95;;;0.22;;
71127;SDS011;59249;59.736;30.568;2022-09-24T15:02:04;2.42;;;0.50;;
71127;SDS011;59249;59.736;30.568;2022-09-24T15:04:48;1.73;;;0.30;;
71127;SDS011;59249;59.736;30.568;2022-09-24T15:07:43;4.13;;;0.60;;
71127;SDS011;59249;59.736;30.568;2022-09-24T15:10:20;4.80;;;0.50;;
71127;SDS011;59249;59.736;30.568;2022-09-24T15:12:52;1.60;;;0.30;;
71127;SDS011;59249;59.736;30.568;2022-09-24T15:15:34;1.40;;;0.32;;
71127;SDS011;59249;59.736;30.568;2022-09-24T15:18:09;2.40;;;0.43;;
71127;SDS011;59249;59.736;30.568;2022-09-24T15:20:45;2.60;;;0.53;;
71127;SDS011;59249;59.736;30.568;2022-09-24T15:26:12;3.28;;;0.43;;
71127;SDS011;59249;59.736;30.568;2022-09-24T15:28:42;4.10;;;1.00;;
71127;SDS011;59249;59.736;30.568;2022-09-24T15:31:10;3.78;;;1.17;;
71127;SDS011;59249;59.736;30.568;2022-09-24T15:33:41;5.90;;;1.23;;
71127;SDS011;59249;59.736;30.568;2022-09-24T15:39:13;2.95;;;0.60;;
71127;SDS011;59249;59.736;30.568;2022-09-24T15:41:52;3.42;;;0.82;;
71127;SDS011;59249;59.736;30.568;2022-09-24T15:44:23;3.63;;;0.75;;
71127;SDS011;59249;59.736;30.568;2022-09-24T15:47:05;2.70;;;0.50;;